createdAt,value
2023-05-22T00:04:21.959Z,100.00
2023-05-22T00:09:18.892Z,100.00
2023-05-22T00:14:15.712Z,100.00
2023-05-22T00:19:17.222Z,100.00
2023-05-22T00:24:13.755Z,100.00
2023-05-22T00:29:10.807Z,100.00
2023-05-22T00:34:07.248Z,100.00
2023-05-22T00:39:03.898Z,100.00
2023-05-22T00:44:00.666Z,100.00
2023-05-22T00:48:57.128Z,100.00
2023-05-22T00:53:54.572Z,100.00
2023-05-22T00:58:50.960Z,100.00
2023-05-22T01:03:47.839Z,100.00
2023-05-22T01:08:44.626Z,100.00
2023-05-22T01:14:00.892Z,100.00
2023-05-22T01:19:31.727Z,100.00
2023-05-22T01:25:07.959Z,100.00
2023-05-22T01:30:26.334Z,100.00
2023-05-22T01:35:24.070Z,100.00
2023-05-22T01:40:21.068Z,100.00
2023-05-22T01:45:17.605Z,100.00
2023-05-22T01:50:14.637Z,100.00
2023-05-22T01:55:21.267Z,100.00
2023-05-22T02:00:21.403Z,100.00
2023-05-22T02:05:21.333Z,100.00
2023-05-22T02:10:18.691Z,100.00
2023-05-22T02:15:15.372Z,100.00
2023-05-22T02:20:16.656Z,100.00
2023-05-22T02:25:14.765Z,100.00
2023-05-22T02:30:12.287Z,100.00
2023-05-22T02:35:09.483Z,100.00
2023-05-22T02:40:06.683Z,100.00
2023-05-22T02:45:03.315Z,100.00
2023-05-22T02:49:59.818Z,100.00
2023-05-22T02:54:56.302Z,100.00
2023-05-22T02:59:54.093Z,100.00
2023-05-22T03:04:50.890Z,100.00
2023-05-22T03:09:47.451Z,100.00
2023-05-22T03:14:44.292Z,100.00
2023-05-22T03:19:41.567Z,100.00
2023-05-22T03:24:37.962Z,100.00
2023-05-22T03:29:34.351Z,100.00
2023-05-22T03:34:32.235Z,100.00
2023-05-22T03:39:28.689Z,100.00
2023-05-22T03:44:25.182Z,100.00
2023-05-22T03:49:21.573Z,100.00
2023-05-22T03:54:18.317Z,100.00
2023-05-22T03:59:14.698Z,100.00
2023-05-22T04:04:12.169Z,100.00
2023-05-22T04:09:12.763Z,100.00
2023-05-22T04:14:09.752Z,100.00
2023-05-22T04:19:06.732Z,100.00
2023-05-22T04:24:07.060Z,100.00
2023-05-22T04:29:04.271Z,100.00
2023-05-22T04:34:01.073Z,100.00
2023-05-22T04:38:57.482Z,100.00
2023-05-22T04:43:54.127Z,100.00
2023-05-22T04:48:51.012Z,100.00
2023-05-22T04:53:49.754Z,100.00
2023-05-22T04:58:48.731Z,100.00
2023-05-22T05:03:45.354Z,100.00
2023-05-22T05:08:44.184Z,100.00
2023-05-22T05:13:41.674Z,100.00
2023-05-22T05:18:38.089Z,100.00
2023-05-22T05:23:34.464Z,100.00
2023-05-22T05:28:30.933Z,100.00
2023-05-22T05:33:27.790Z,100.00
2023-05-22T05:38:24.234Z,100.00
2023-05-22T05:43:20.752Z,100.00
2023-05-22T05:48:17.566Z,100.00
2023-05-22T05:53:14.087Z,100.00
2023-05-22T05:58:10.499Z,100.00
2023-05-22T06:03:07.142Z,100.00
2023-05-22T06:08:04.374Z,100.00
2023-05-22T06:13:00.877Z,100.00
2023-05-22T06:17:57.806Z,100.00
2023-05-22T06:22:54.253Z,100.00
2023-05-22T06:27:50.634Z,100.00
2023-05-22T06:32:47.336Z,100.00
2023-05-22T06:37:44.131Z,100.00
2023-05-22T06:42:40.979Z,100.00
2023-05-22T06:47:37.426Z,100.00
2023-05-22T06:52:33.931Z,100.00
2023-05-22T06:57:31.951Z,100.00
2023-05-22T07:02:28.669Z,100.00
2023-05-22T07:07:25.088Z,100.00
2023-05-22T07:12:25.894Z,100.00
2023-05-22T07:17:22.886Z,100.00
2023-05-22T07:22:19.407Z,100.00
2023-05-22T07:27:15.940Z,100.00
2023-05-22T07:32:12.383Z,100.00
2023-05-22T07:37:11.176Z,100.00
2023-05-22T07:42:07.834Z,100.00
2023-05-22T07:47:04.516Z,100.00
2023-05-22T07:52:00.918Z,100.00
2023-05-22T07:56:57.497Z,100.00
2023-05-22T08:01:54.216Z,100.00
2023-05-22T08:06:50.844Z,100.00
2023-05-22T08:11:47.526Z,100.00
2023-05-22T08:16:43.995Z,100.00
2023-05-22T08:21:40.433Z,100.00
2023-05-22T08:26:37.465Z,100.00
2023-05-22T08:31:34.341Z,100.00
2023-05-22T08:36:34.201Z,100.00
2023-05-22T08:41:30.881Z,100.00
2023-05-22T08:46:29.333Z,100.00
2023-05-22T08:51:29.216Z,100.00
2023-05-22T08:56:28.675Z,100.00
2023-05-22T09:01:26.273Z,100.00
2023-05-22T09:06:23.236Z,99.59
2023-05-22T09:11:19.803Z,88.02
2023-05-22T09:16:16.861Z,87.22
2023-05-22T09:21:28.994Z,87.07
2023-05-22T09:26:29.552Z,88.45
2023-05-22T09:31:26.469Z,82.74
2023-05-22T09:36:29.988Z,87.13
2023-05-22T09:41:28.130Z,100.00
2023-05-22T09:46:24.628Z,100.00
2023-05-22T09:51:23.767Z,100.00
2023-05-22T09:56:31.248Z,100.00
2023-05-22T10:01:36.879Z,100.00
2023-05-22T10:06:34.768Z,100.00
2023-05-22T10:11:33.231Z,100.00
2023-05-22T10:16:30.280Z,100.00
2023-05-22T10:21:28.881Z,100.00
2023-05-22T10:26:26.256Z,100.00
2023-05-22T10:31:57.788Z,100.00
2023-05-22T10:37:20.729Z,100.00
2023-05-22T10:42:18.315Z,100.00
2023-05-22T10:47:14.789Z,100.00
2023-05-22T10:52:11.442Z,100.00
2023-05-22T10:57:15.982Z,100.00
2023-05-22T11:02:29.761Z,100.00
2023-05-22T11:07:26.408Z,100.00
2023-05-22T11:12:31.029Z,100.00
2023-05-22T11:17:42.846Z,100.00
2023-05-22T11:22:44.128Z,100.00
2023-05-22T11:27:41.337Z,100.00
2023-05-22T11:32:39.158Z,100.00
2023-05-22T11:37:40.002Z,100.00
2023-05-22T11:42:37.699Z,100.00
2023-05-22T11:47:34.361Z,100.00
2023-05-22T11:52:36.491Z,100.00
2023-05-22T11:57:32.853Z,100.00
2023-05-22T12:02:30.384Z,100.00
2023-05-22T12:07:27.722Z,100.00
2023-05-22T12:12:24.367Z,100.00
2023-05-22T12:17:20.793Z,100.00
2023-05-22T12:22:17.259Z,100.00
2023-05-22T12:27:14.604Z,100.00
2023-05-22T12:32:12.450Z,100.00
2023-05-22T12:37:22.823Z,100.00
2023-05-22T12:42:19.359Z,100.00
2023-05-22T12:47:15.914Z,100.00
2023-05-22T12:52:13.304Z,100.00
2023-05-22T12:57:10.074Z,100.00
2023-05-22T13:02:07.004Z,100.00
2023-05-22T13:07:03.353Z,100.00
2023-05-22T13:12:00.146Z,100.00
2023-05-22T13:16:56.648Z,100.00
2023-05-22T13:21:53.335Z,100.00
2023-05-22T13:26:49.802Z,100.00
2023-05-22T13:31:46.314Z,100.00
2023-05-22T13:36:43.003Z,100.00
2023-05-22T13:41:39.430Z,100.00
2023-05-22T13:46:36.718Z,100.00
2023-05-22T13:51:35.875Z,100.00
2023-05-22T13:56:32.310Z,100.00
2023-05-22T14:01:29.036Z,100.00
2023-05-22T14:06:26.012Z,100.00
2023-05-22T14:11:23.100Z,100.00
2023-05-22T14:16:22.310Z,100.00
2023-05-22T14:21:19.438Z,100.00
2023-05-22T14:26:15.929Z,100.00
2023-05-22T14:31:12.545Z,100.00
2023-05-22T14:36:09.018Z,100.00
2023-05-22T14:41:05.400Z,100.00
2023-05-22T14:46:01.913Z,100.00
2023-05-22T14:50:58.355Z,100.00
2023-05-22T14:55:54.761Z,100.00
2023-05-22T15:00:51.294Z,100.00
2023-05-22T15:05:47.753Z,100.00
2023-05-22T15:10:45.192Z,78.92
2023-05-22T15:15:42.466Z,67.09
2023-05-22T15:20:39.066Z,74.84
2023-05-22T15:25:36.545Z,75.25
2023-05-22T15:30:38.784Z,77.51
2023-05-22T15:35:35.361Z,80.51
2023-05-22T15:40:31.808Z,75.58
2023-05-22T15:45:28.620Z,76.75
2023-05-22T15:50:25.079Z,78.54
2023-05-22T15:55:21.502Z,80.66
2023-05-22T16:00:18.810Z,100.00
2023-05-22T16:05:15.267Z,100.00
2023-05-22T16:10:11.944Z,100.00
2023-05-22T16:15:08.976Z,100.00
2023-05-22T16:20:06.526Z,100.00
2023-05-22T16:25:02.998Z,100.00
2023-05-22T16:30:02.526Z,100.00
2023-05-22T16:34:58.946Z,100.00
2023-05-22T16:39:56.002Z,100.00
2023-05-22T16:44:52.571Z,100.00
2023-05-22T16:49:49.825Z,100.00
2023-05-22T16:54:46.458Z,100.00
2023-05-22T16:59:42.855Z,100.00
2023-05-22T17:04:40.576Z,100.00
2023-05-22T17:09:36.981Z,100.00
2023-05-22T17:14:34.349Z,100.00
2023-05-22T17:19:30.960Z,100.00
2023-05-22T17:24:27.817Z,100.00
2023-05-22T17:29:25.085Z,100.00
2023-05-22T17:34:24.207Z,100.00
2023-05-22T17:39:20.580Z,100.00
2023-05-22T17:44:17.092Z,100.00
2023-05-22T17:49:13.476Z,100.00
2023-05-22T17:54:09.907Z,100.00
2023-05-22T17:59:07.123Z,100.00
2023-05-22T18:04:04.807Z,100.00
2023-05-22T18:09:04.318Z,100.00
2023-05-22T18:14:00.758Z,100.00
2023-05-22T18:18:57.509Z,100.00
2023-05-22T18:23:55.135Z,100.00
2023-05-22T18:28:51.657Z,100.00
2023-05-22T18:33:48.065Z,100.00
2023-05-22T18:38:44.572Z,100.00
2023-05-22T18:43:41.091Z,100.00
2023-05-22T18:48:37.599Z,100.00
2023-05-22T18:53:34.469Z,100.00
2023-05-22T18:58:31.035Z,100.00
2023-05-22T19:03:27.473Z,100.00
2023-05-22T19:08:26.527Z,100.00
2023-05-22T19:13:22.888Z,100.00
2023-05-22T19:18:19.349Z,100.00
2023-05-22T19:23:15.740Z,100.00
2023-05-22T19:28:12.179Z,100.00
2023-05-22T19:33:09.157Z,100.00
2023-05-22T19:38:05.954Z,100.00
2023-05-22T19:43:02.519Z,100.00
2023-05-22T19:47:58.967Z,100.00
2023-05-22T19:52:55.552Z,100.00
2023-05-22T19:57:51.939Z,100.00
2023-05-22T20:02:48.486Z,100.00
2023-05-22T20:07:44.922Z,100.00
2023-05-22T20:12:41.403Z,100.00
2023-05-22T20:17:38.486Z,100.00
2023-05-22T20:22:35.294Z,100.00
2023-05-22T20:27:31.912Z,100.00
2023-05-22T20:32:28.599Z,100.00
2023-05-22T20:37:26.436Z,100.00
2023-05-22T20:42:22.959Z,100.00
2023-05-22T20:47:19.577Z,100.00
2023-05-22T20:52:16.042Z,100.00
2023-05-22T20:57:12.542Z,100.00
2023-05-22T21:02:09.237Z,100.00
2023-05-22T21:07:05.789Z,100.00
2023-05-22T21:12:03.900Z,100.00
2023-05-22T21:17:00.445Z,100.00
2023-05-22T21:21:56.930Z,100.00
2023-05-22T21:26:53.513Z,100.00
2023-05-22T21:31:50.116Z,100.00
2023-05-22T21:36:46.595Z,100.00
2023-05-22T21:41:43.062Z,100.00
2023-05-22T21:46:39.669Z,100.00
2023-05-22T21:51:36.231Z,100.00
2023-05-22T21:56:32.679Z,100.00
2023-05-22T22:01:29.264Z,100.00
2023-05-22T22:06:25.789Z,100.00
2023-05-22T22:11:22.565Z,100.00
2023-05-22T22:16:19.143Z,100.00
2023-05-22T22:21:28.220Z,100.00
2023-05-22T22:26:24.662Z,100.00
2023-05-22T22:31:21.637Z,100.00
2023-05-22T22:36:18.095Z,100.00
2023-05-22T22:41:14.532Z,100.00
2023-05-22T22:46:11.122Z,100.00
2023-05-22T22:51:08.317Z,100.00
2023-05-22T22:56:04.785Z,100.00
2023-05-22T23:01:01.639Z,100.00
2023-05-22T23:05:58.076Z,100.00
2023-05-22T23:10:54.541Z,100.00
2023-05-22T23:15:51.058Z,100.00
2023-05-22T23:20:47.627Z,100.00
2023-05-22T23:25:44.087Z,100.00
2023-05-22T23:30:40.486Z,100.00
2023-05-22T23:35:36.925Z,100.00
2023-05-22T23:40:33.314Z,100.00
2023-05-22T23:45:29.730Z,100.00
2023-05-22T23:50:26.175Z,100.00
2023-05-22T23:55:22.597Z,100.00
